Time;durP1;ratioP1;P1;durP2;ratioP2;P2;SDS_P1;SDS_P2;PMS_P1;PMS_P2;Temp;Humidity;BMP_temperature;BMP_pressure;BME280_temperature;BME280_humidity;BME280_pressure;Samples;Min_cycle;Max_cycle;Signal;HPM_P1;HPM_P2
2023/08/27 00:00:10;;;;;;;5.60;5.00;;;;;;;20.88;70.06;93424.09;513883;28;935;-44
2023/08/27 00:00:26;;;;;;;6.40;5.00;;;;;;;20.96;70.23;93439.28;513913;28;846;-45
2023/08/27 00:00:41;;;;;;;6.70;5.18;;;;;;;20.97;70.22;93440.03;513811;28;1107;-44
2023/08/27 00:00:56;;;;;;;5.77;5.10;;;;;;;20.96;70.06;93438.59;512395;28;1702;-45
2023/08/27 00:01:12;;;;;;;6.53;4.97;;;;;;;20.97;70.47;93435.16;513628;28;874;-44
2023/08/27 00:01:27;;;;;;;7.20;5.25;;;;;;;20.97;70.36;93434.41;513772;28;1035;-45
2023/08/27 00:01:43;;;;;;;6.73;5.50;;;;;;;20.97;70.43;93432.34;513686;28;777;-45
2023/08/27 00:01:58;;;;;;;5.90;5.25;;;;;;;20.97;70.32;93434.41;512898;28;1461;-45
2023/08/27 00:02:13;;;;;;;5.73;5.00;;;;;;;20.97;70.26;93434.41;512308;28;1137;-45
2023/08/27 00:02:29;;;;;;;5.67;5.07;;;;;;;20.98;70.18;93436.63;511990;28;793;-44
2023/08/27 00:02:44;;;;;;;6.30;5.38;;;;;;;20.99;70.17;93431.72;511890;28;1322;-44
2023/08/27 00:02:59;;;;;;;6.63;5.43;;;;;;;20.99;70.17;93431.72;513245;28;872;-44
2023/08/27 00:03:15;;;;;;;6.60;5.27;;;;;;;20.99;70.09;93437.34;513888;28;1072;-45
2023/08/27 00:03:30;;;;;;;5.88;4.85;;;;;;;20.99;70.06;93434.53;513924;28;1642;-44
2023/08/27 00:03:46;;;;;;;5.47;4.80;;;;;;;20.99;69.93;93437.34;513714;28;1639;-45
2023/08/27 00:04:02;;;;;;;5.63;4.97;;;;;;;20.98;69.78;93430.28;513803;28;863;-44
2023/08/27 00:04:17;;;;;;;5.63;5.00;;;;;;;20.97;69.86;93440.78;513782;28;884;-45
2023/08/27 00:04:32;;;;;;;5.57;4.97;;;;;;;20.97;69.79;93429.53;513816;28;860;-44
2023/08/27 00:04:48;;;;;;;6.20;5.60;;;;;;;20.97;69.86;93428.81;513874;28;1178;-44
2023/08/27 00:05:04;;;;;;;6.63;5.63;;;;;;;20.96;69.83;93427.38;512573;28;1802;-45
2023/08/27 00:05:19;;;;;;;6.45;5.15;;;;;;;20.97;69.89;93434.41;511954;28;805;-45
2023/08/27 00:05:42;;;;;;;6.20;5.22;;;;;;;20.97;69.80;93435.16;513486;28;848;-45
2023/08/27 00:05:57;;;;;;;6.07;5.47;;;;;;;20.96;69.82;93428.06;513709;28;936;-45
2023/08/27 00:06:12;;;;;;;6.73;5.57;;;;;;;20.95;69.81;93432.25;512944;28;1448;-45
2023/08/27 00:06:28;;;;;;;5.65;5.05;;;;;;;20.95;69.69;93425.88;513628;28;1087;-45
2023/08/27 00:06:43;;;;;;;6.43;4.73;;;;;;;20.94;69.74;93432.88;513889;28;821;-44
2023/08/27 00:06:58;;;;;;;7.43;5.13;;;;;;;20.96;69.80;93430.16;513896;28;781;-45
2023/08/27 00:07:14;;;;;;;7.55;5.25;;;;;;;20.96;69.76;93430.88;512052;28;1156;-45
2023/08/27 00:07:29;;;;;;;7.43;5.05;;;;;;;20.96;69.76;93425.25;513893;28;1492;-45
2023/08/27 00:07:45;;;;;;;5.83;5.03;;;;;;;20.96;69.81;93430.16;513760;28;1099;-45
2023/08/27 00:08:00;;;;;;;5.93;5.32;;;;;;;20.94;70.05;93425.16;513808;28;798;-45
2023/08/27 00:08:15;;;;;;;6.00;5.17;;;;;;;20.96;70.20;93428.06;513890;28;815;-46
2023/08/27 00:08:31;;;;;;;6.07;5.13;;;;;;;20.94;70.16;93427.25;513945;28;1061;-44
2023/08/27 00:08:46;;;;;;;6.90;5.30;;;;;;;20.94;70.14;93430.06;513874;28;1130;-44
2023/08/27 00:09:01;;;;;;;6.18;5.05;;;;;;;20.95;70.23;93423.09;513865;28;915;-45
2023/08/27 00:09:17;;;;;;;5.40;4.90;;;;;;;20.95;70.15;93429.44;513785;28;1135;-44
2023/08/27 00:09:32;;;;;;;5.67;5.07;;;;;;;20.94;70.10;93430.06;513259;28;1822;-44
2023/08/27 00:09:48;;;;;;;5.68;4.88;;;;;;;20.94;69.99;93421.63;513334;28;966;-45
2023/08/27 00:10:04;;;;;;;6.10;5.03;;;;;;;20.94;70.02;93427.97;512827;28;868;-45
2023/08/27 00:10:19;;;;;;;5.72;5.05;;;;;;;20.93;70.06;93425.78;513845;28;1362;-45
2023/08/27 00:10:34;;;;;;;6.03;5.25;;;;;;;20.94;70.01;93425.16;513733;28;868;-45
2023/08/27 00:10:50;;;;;;;5.57;5.03;;;;;;;20.92;69.83;93427.84;513758;28;1143;-45
2023/08/27 00:11:05;;;;;;;5.17;4.73;;;;;;;20.86;69.74;93424.72;513880;28;781;-45
2023/08/27 00:11:21;;;;;;;5.47;4.82;;;;;;;20.95;69.78;93428.69;515707;28;838;-44
2023/08/27 00:11:36;;;;;;;6.40;5.27;;;;;;;20.94;69.66;93430.78;515819;28;943;-45
2023/08/27 00:11:51;;;;;;;6.33;5.33;;;;;;;20.94;69.69;93424.44;513621;28;875;-45
2023/08/27 00:12:07;;;;;;;5.57;4.85;;;;;;;20.93;69.48;93426.53;515062;28;1103;-45
2023/08/27 00:12:22;;;;;;;5.57;4.93;;;;;;;20.74;69.44;93396.00;515334;28;1719;-44
2023/08/27 00:12:38;;;;;;;5.60;5.00;;;;;;;20.93;69.52;93423.72;514358;28;863;-45
2023/08/27 00:12:53;;;;;;;5.77;4.93;;;;;;;20.94;69.37;93427.97;515626;28;835;-45
2023/08/27 00:13:09;;;;;;;6.17;4.73;;;;;;;20.94;69.38;93430.78;515178;28;782;-44
2023/08/27 00:13:24;;;;;;;7.25;4.95;;;;;;;20.94;69.34;93425.16;513966;28;789;-46
2023/08/27 00:13:39;;;;;;;7.17;5.10;;;;;;;20.85;69.27;93417.66;513800;28;1201;-44
2023/08/27 00:13:55;;;;;;;6.23;5.30;;;;;;;20.93;69.34;93422.97;513868;28;840;-45
2023/08/27 00:14:10;;;;;;;5.68;5.07;;;;;;;20.87;69.37;93422.66;513555;28;1282;-45
2023/08/27 00:14:25;;;;;;;5.20;4.70;;;;;;;20.92;69.13;93427.16;512076;28;1373;-45
2023/08/27 00:14:41;;;;;;;5.57;4.93;;;;;;;20.92;69.02;93429.94;513409;28;778;-44
2023/08/27 00:14:56;;;;;;;6.18;5.18;;;;;;;20.91;69.01;93431.28;513946;28;880;-46
2023/08/27 00:15:12;;;;;;;6.10;5.00;;;;;;;20.90;68.91;93430.56;513581;28;1907;-45
2023/08/27 00:15:27;;;;;;;5.53;4.75;;;;;;;20.90;68.88;93432.63;513461;28;1362;-44
2023/08/27 00:15:46;;;;;;;5.63;4.60;;;;;;;20.76;68.94;93415.75;512954;28;1720;-44
2023/08/27 00:16:04;;;;;;;5.85;5.22;;;;;;;20.87;69.02;93431.81;512875;28;882;-46
2023/08/27 00:16:20;;;;;;;6.00;5.40;;;;;;;20.88;69.09;93432.50;513933;28;806;-44
2023/08/27 00:16:35;;;;;;;5.70;5.10;;;;;;;20.83;69.13;93428.03;513885;28;832;-44
2023/08/27 00:16:52;;;;;;;6.32;5.10;;;;;;;20.86;68.86;93433.13;513793;28;1206;-44
2023/08/27 00:17:08;;;;;;;5.38;4.68;;;;;;;20.85;69.04;93426.06;513834;28;1650;-45
2023/08/27 00:17:24;;;;;;;5.37;4.60;;;;;;;20.86;69.04;93432.41;513896;28;864;-44
2023/08/27 00:17:39;;;;;;;5.68;4.82;;;;;;;20.86;69.00;93433.13;514044;28;793;-45
2023/08/27 00:17:55;;;;;;;5.75;5.15;;;;;;;20.76;69.01;93412.94;513780;28;1027;-44
2023/08/27 00:18:10;;;;;;;5.70;4.90;;;;;;;20.85;69.04;93436.56;513795;28;1020;-44
2023/08/27 00:18:25;;;;;;;5.90;5.03;;;;;;;20.84;69.02;93430.22;513819;28;1190;-44
2023/08/27 00:18:41;;;;;;;6.22;5.05;;;;;;;20.85;69.03;93433.75;513911;28;852;-45
2023/08/27 00:18:56;;;;;;;5.93;4.80;;;;;;;20.84;68.98;93433.03;513898;28;1533;-44
2023/08/27 00:19:11;;;;;;;5.83;4.70;;;;;;;20.83;69.00;93437.19;513880;28;900;-44
2023/08/27 00:19:27;;;;;;;6.25;4.82;;;;;;;20.85;68.95;93439.38;513940;28;775;-46
2023/08/27 00:19:42;;;;;;;5.40;4.70;;;;;;;20.84;68.90;93430.22;513735;28;1193;-44
2023/08/27 00:19:58;;;;;;;5.23;4.73;;;;;;;20.84;68.92;93430.22;513838;28;990;-46
2023/08/27 00:20:13;;;;;;;5.60;5.05;;;;;;;20.84;68.81;93433.03;513711;28;914;-44
2023/08/27 00:20:28;;;;;;;5.50;5.00;;;;;;;20.84;68.81;93432.28;512945;28;1668;-45
2023/08/27 00:20:48;;;;;;;5.43;4.87;;;;;;;20.85;68.71;93433.75;513253;28;766;-46
2023/08/27 00:21:03;;;;;;;6.45;4.93;;;;;;;20.78;68.76;93423.53;512890;28;904;-45
2023/08/27 00:21:19;;;;;;;6.47;4.97;;;;;;;20.85;68.64;93430.94;513855;28;1183;-45
2023/08/27 00:21:34;;;;;;;5.90;4.70;;;;;;;20.85;68.65;93437.31;513892;28;1576;-45
2023/08/27 00:21:51;;;;;;;6.77;4.70;;;;;;;20.84;68.65;93432.28;513808;28;805;-44
2023/08/27 00:22:07;;;;;;;6.88;5.10;;;;;;;20.84;68.54;93432.28;513819;28;892;-45
2023/08/27 00:22:22;;;;;;;5.47;4.83;;;;;;;20.83;68.45;93425.97;513744;28;865;-46
2023/08/27 00:22:37;;;;;;;5.13;4.60;;;;;;;20.82;68.38;93435.72;513632;28;1060;-45
2023/08/27 00:22:53;;;;;;;5.20;4.70;;;;;;;20.81;68.48;93431.44;513651;28;983;-44
2023/08/27 00:23:10;;;;;;;5.10;4.60;;;;;;;20.80;68.41;93427.19;512713;28;1632;-44
2023/08/27 00:23:25;;;;;;;5.63;4.85;;;;;;;20.80;68.36;93424.38;513290;28;863;-44
2023/08/27 00:23:41;;;;;;;6.10;5.10;;;;;;;20.79;68.25;93425.72;512175;28;829;-45
2023/08/27 00:23:56;;;;;;;6.43;5.10;;;;;;;20.78;68.24;93427.06;509761;29;2530;-44
2023/08/27 00:24:12;;;;;;;5.65;4.90;;;;;;;20.78;68.18;93435.50;512010;28;1091;-45
2023/08/27 00:24:27;;;;;;;5.40;4.67;;;;;;;20.77;68.12;93422.81;512167;28;892;-45
2023/08/27 00:24:42;;;;;;;4.83;4.33;;;;;;;20.76;68.23;93426.22;513734;28;891;-45
2023/08/27 00:24:58;;;;;;;5.03;4.53;;;;;;;20.75;68.20;93422.69;513667;28;920;-45
2023/08/27 00:25:13;;;;;;;6.07;4.60;;;;;;;20.74;68.24;93431.72;512662;28;774;-45
2023/08/27 00:25:28;;;;;;;6.40;4.60;;;;;;;20.74;68.31;93424.06;511788;29;912;-45
2023/08/27 00:25:44;;;;;;;5.25;4.70;;;;;;;20.73;68.16;93421.84;511924;28;1355;-45
2023/08/27 00:25:59;;;;;;;5.40;4.50;;;;;;;20.71;68.31;93419.66;512724;28;867;-45
2023/08/27 00:26:14;;;;;;;6.07;5.03;;;;;;;20.71;68.25;93424.53;513851;28;920;-44
2023/08/27 00:26:30;;;;;;;5.32;4.82;;;;;;;20.70;68.35;93420.28;513869;28;809;-45
2023/08/27 00:26:45;;;;;;;5.00;4.33;;;;;;;20.69;68.36;93427.97;513793;28;833;-44
2023/08/27 00:27:01;;;;;;;5.90;4.60;;;;;;;20.61;68.36;93409.94;512590;28;840;-45
2023/08/27 00:27:16;;;;;;;5.35;4.40;;;;;;;20.66;68.50;93420.78;513806;28;1091;-45
2023/08/27 00:27:33;;;;;;;5.13;4.50;;;;;;;20.65;68.37;93419.31;513855;28;1063;-44
2023/08/27 00:27:49;;;;;;;5.40;4.50;;;;;;;20.64;68.38;93420.66;513876;28;862;-43
2023/08/27 00:28:05;;;;;;;5.43;4.40;;;;;;;20.64;68.43;93419.94;512969;28;912;-45
2023/08/27 00:28:21;;;;;;;5.70;4.30;;;;;;;20.55;68.45;93410.34;513853;28;893;-44
2023/08/27 00:28:36;;;;;;;5.10;4.30;;;;;;;20.60;68.58;93420.44;513892;28;955;-44
2023/08/27 00:28:51;;;;;;;5.17;4.73;;;;;;;20.60;68.68;93426.03;513738;28;1116;-45
2023/08/27 00:29:07;;;;;;;5.23;4.73;;;;;;;20.58;68.71;93417.53;513828;28;915;-45
2023/08/27 00:29:22;;;;;;;5.03;4.53;;;;;;;20.57;68.71;93418.88;513827;28;869;-45
2023/08/27 00:29:38;;;;;;;4.87;4.37;;;;;;;20.57;68.84;93423.75;513921;28;891;-45
2023/08/27 00:29:53;;;;;;;5.10;4.60;;;;;;;20.55;68.85;93418.75;513706;28;797;-46
2023/08/27 00:30:09;;;;;;;5.30;4.68;;;;;;;20.56;68.89;93413.88;513857;28;889;-46
2023/08/27 00:30:24;;;;;;;6.07;4.73;;;;;;;20.55;69.03;93418.75;512969;28;1415;-44
2023/08/27 00:30:40;;;;;;;5.82;4.90;;;;;;;20.55;69.04;93418.75;512417;28;1236;-46
2023/08/27 00:31:03;;;;;;;5.25;4.75;;;;;;;20.55;69.13;93418.75;513180;28;1279;-44
2023/08/27 00:31:18;;;;;;;5.78;4.72;;;;;;;20.53;69.11;93407.41;513992;28;988;-46
2023/08/27 00:31:33;;;;;;;5.47;4.70;;;;;;;20.53;69.17;93415.81;513789;28;1003;-46
2023/08/27 00:31:49;;;;;;;5.30;4.80;;;;;;;20.54;69.12;93422.91;513725;28;1141;-45
2023/08/27 00:32:05;;;;;;;5.00;4.50;;;;;;;20.54;69.22;93416.56;513805;28;840;-45
2023/08/27 00:32:20;;;;;;;4.85;4.38;;;;;;;20.54;69.21;93416.56;513931;28;835;-44
2023/08/27 00:32:35;;;;;;;5.13;4.63;;;;;;;20.53;69.33;93417.91;513667;28;880;-45
2023/08/27 00:32:51;;;;;;;5.05;4.55;;;;;;;20.53;69.31;93413.00;513837;28;869;-44
2023/08/27 00:33:07;;;;;;;5.33;4.83;;;;;;;20.51;69.21;93412.19;513793;28;920;-46
2023/08/27 00:33:22;;;;;;;6.10;5.50;;;;;;;20.52;69.43;93417.19;513833;28;1186;-44
2023/08/27 00:33:37;;;;;;;5.87;5.23;;;;;;;20.51;69.74;93421.31;513914;28;1064;-44
2023/08/27 00:33:53;;;;;;;5.77;4.77;;;;;;;20.50;69.88;93417.06;513754;28;832;-44
2023/08/27 00:34:08;;;;;;;6.05;5.00;;;;;;;20.48;70.11;93424.63;512928;28;1621;-45
2023/08/27 00:34:31;;;;;;;5.77;5.17;;;;;;;20.37;70.32;93406.50;512318;28;807;-45
2023/08/27 00:34:47;;;;;;;5.90;5.13;;;;;;;20.43;70.30;93418.06;512099;28;1068;-46
2023/08/27 00:35:05;;;;;;;6.60;5.20;;;;;;;20.44;70.38;93418.78;513628;28;800;-44
2023/08/27 00:35:20;;;;;;;6.75;5.25;;;;;;;20.42;70.36;93422.94;513749;28;956;-44
2023/08/27 00:35:36;;;;;;;6.47;5.27;;;;;;;20.43;70.41;93423.66;513649;28;1139;-44
2023/08/27 00:35:53;;;;;;;5.72;5.13;;;;;;;20.42;70.49;93417.31;513699;28;766;-44
2023/08/27 00:36:09;;;;;;;6.57;5.05;;;;;;;20.42;70.51;93419.41;513653;28;814;-45
2023/08/27 00:36:24;;;;;;;6.37;4.93;;;;;;;20.42;70.56;93421.50;513472;28;1127;-45
2023/08/27 00:36:41;;;;;;;5.47;4.97;;;;;;;20.42;70.54;93418.69;513779;28;777;-44
2023/08/27 00:36:56;;;;;;;5.90;5.35;;;;;;;20.40;70.63;93420.00;513858;28;822;-44
2023/08/27 00:37:11;;;;;;;6.03;5.20;;;;;;;20.41;70.52;93420.75;513823;28;835;-44
2023/08/27 00:37:27;;;;;;;6.30;4.85;;;;;;;20.40;70.50;93422.81;513932;28;848;-44
2023/08/27 00:37:42;;;;;;;6.27;5.07;;;;;;;20.40;70.43;93419.28;513793;28;829;-45
2023/08/27 00:37:57;;;;;;;6.97;5.38;;;;;;;20.39;70.52;93412.97;513691;28;1547;-45
2023/08/27 00:38:13;;;;;;;6.87;5.20;;;;;;;20.38;70.55;93414.28;513853;28;777;-45
2023/08/27 00:38:28;;;;;;;5.40;4.90;;;;;;;20.38;70.55;93413.56;513123;28;1783;-45
2023/08/27 00:38:44;;;;;;;5.25;4.75;;;;;;;20.39;70.55;93420.63;512666;28;784;-45
2023/08/27 00:38:59;;;;;;;5.63;4.90;;;;;;;20.39;70.53;93412.22;512948;28;903;-45
2023/08/27 00:39:15;;;;;;;5.40;4.90;;;;;;;20.38;70.48;93417.09;513918;28;836;-46
2023/08/27 00:39:30;;;;;;;5.23;4.73;;;;;;;20.38;70.58;93414.28;513860;28;776;-46
2023/08/27 00:39:45;;;;;;;5.60;4.90;;;;;;;20.38;70.69;93413.56;513814;28;793;-44
2023/08/27 00:40:01;;;;;;;6.68;5.05;;;;;;;20.38;70.62;93413.56;513827;28;793;-45
2023/08/27 00:40:16;;;;;;;5.93;5.20;;;;;;;20.36;70.83;93408.56;513872;28;1160;-45
2023/08/27 00:40:32;;;;;;;5.33;4.83;;;;;;;20.35;70.95;93414.81;513791;28;972;-44
2023/08/27 00:40:47;;;;;;;5.20;4.70;;;;;;;20.32;71.19;93413.94;513772;28;1008;-45
2023/08/27 00:41:02;;;;;;;5.37;4.83;;;;;;;20.32;71.34;93413.22;513248;28;1650;-45
2023/08/27 00:41:18;;;;;;;5.80;5.20;;;;;;;20.30;71.36;93405.44;513014;28;836;-45
2023/08/27 00:41:33;;;;;;;5.68;5.10;;;;;;;20.31;71.21;93412.47;512118;28;841;-45
2023/08/27 00:41:48;;;;;;;5.30;4.70;;;;;;;20.31;71.18;93406.88;513849;28;1002;-48
2023/08/27 00:42:04;;;;;;;5.70;4.80;;;;;;;20.31;71.28;93411.78;513657;28;953;-45
2023/08/27 00:42:20;;;;;;;6.57;4.80;;;;;;;20.31;71.33;93412.47;513801;28;988;-44
2023/08/27 00:42:35;;;;;;;7.10;5.20;;;;;;;20.32;71.32;93413.22;513718;28;934;-46
2023/08/27 00:42:50;;;;;;;7.43;5.70;;;;;;;20.32;71.42;93413.22;513920;28;799;-46
2023/08/27 00:43:06;;;;;;;6.93;5.23;;;;;;;20.33;71.51;93411.88;513740;28;794;-45
2023/08/27 00:43:21;;;;;;;6.17;4.90;;;;;;;20.32;71.50;93411.16;513931;28;805;-45
2023/08/27 00:43:37;;;;;;;7.53;5.18;;;;;;;20.32;71.52;93408.34;513808;28;881;-44
2023/08/27 00:43:52;;;;;;;7.60;5.50;;;;;;;20.31;71.43;93406.88;513055;28;1739;-45
2023/08/27 00:44:07;;;;;;;5.97;5.28;;;;;;;20.32;71.43;93411.16;513672;28;823;-45
2023/08/27 00:44:23;;;;;;;5.53;4.93;;;;;;;20.32;71.32;93410.41;513708;28;848;-46
2023/08/27 00:44:38;;;;;;;5.73;4.80;;;;;;;20.27;71.30;93400.31;513926;28;845;-45
2023/08/27 00:44:54;;;;;;;6.13;5.13;;;;;;;20.33;71.16;93403.47;512343;28;1164;-46
2023/08/27 00:45:09;;;;;;;5.80;4.97;;;;;;;20.32;71.08;93413.22;513617;28;1179;-46
2023/08/27 00:45:25;;;;;;;5.38;4.88;;;;;;;20.32;70.92;93408.34;513771;28;1103;-46
2023/08/27 00:45:41;;;;;;;5.32;4.82;;;;;;;20.33;70.91;93404.22;513883;28;834;-46
2023/08/27 00:45:57;;;;;;;5.30;4.80;;;;;;;20.32;70.91;93405.53;513789;28;857;-46
2023/08/27 00:46:13;;;;;;;5.57;5.05;;;;;;;20.33;70.81;93404.22;513746;28;881;-45
2023/08/27 00:46:28;;;;;;;6.25;5.03;;;;;;;20.34;70.70;93410.53;512800;28;1751;-47
2023/08/27 00:46:43;;;;;;;6.83;5.10;;;;;;;20.33;70.70;93404.22;511693;29;873;-46
2023/08/27 00:47:00;;;;;;;5.93;5.20;;;;;;;20.35;70.85;93403.59;513440;28;1123;-45
2023/08/27 00:47:15;;;;;;;5.95;5.35;;;;;;;20.36;70.94;93411.38;515671;28;844;-45
2023/08/27 00:47:31;;;;;;;6.27;5.43;;;;;;;20.35;70.92;93415.53;512728;28;845;-45
2023/08/27 00:47:46;;;;;;;5.85;5.20;;;;;;;20.34;71.04;93408.47;511588;29;826;-45
2023/08/27 00:48:02;;;;;;;6.17;4.80;;;;;;;20.36;70.98;93410.63;511618;28;892;-45
2023/08/27 00:48:18;;;;;;;6.43;4.82;;;;;;;20.37;70.88;93409.31;512265;28;1103;-45
2023/08/27 00:48:33;;;;;;;5.57;4.70;;;;;;;20.37;70.83;93407.25;510742;29;877;-45
2023/08/27 00:48:49;;;;;;;5.68;4.65;;;;;;;20.37;70.77;93410.03;509723;29;1007;-47
2023/08/27 00:49:04;;;;;;;5.80;5.07;;;;;;;20.37;70.81;93407.25;510720;29;884;-46
2023/08/27 00:49:20;;;;;;;5.87;4.77;;;;;;;20.37;70.66;93409.31;512205;28;852;-45
2023/08/27 00:49:35;;;;;;;4.85;4.35;;;;;;;20.38;70.63;93405.16;513685;28;849;-45
2023/08/27 00:49:51;;;;;;;5.30;4.80;;;;;;;20.38;70.56;93410.75;511481;29;1253;-45
2023/08/27 00:50:09;;;;;;;6.33;4.90;;;;;;;20.38;70.45;93405.88;509735;29;833;-45
2023/08/27 00:50:25;;;;;;;5.30;4.70;;;;;;;20.38;70.41;93405.88;509503;29;1440;-45
2023/08/27 00:50:40;;;;;;;5.43;4.93;;;;;;;20.39;69.80;93403.81;509733;29;849;-45
2023/08/27 00:50:57;;;;;;;5.47;4.55;;;;;;;20.38;70.28;93400.28;509374;29;1443;-46
2023/08/27 00:51:12;;;;;;;5.05;4.30;;;;;;;20.37;70.21;93410.03;507612;29;1726;-46
2023/08/27 00:51:27;;;;;;;5.37;4.50;;;;;;;20.39;70.22;93412.22;505684;29;1186;-46
2023/08/27 00:51:44;;;;;;;5.57;4.68;;;;;;;20.39;70.15;93412.97;506610;29;798;-46
2023/08/27 00:52:01;;;;;;;5.22;4.72;;;;;;;20.40;70.09;93410.88;508791;29;918;-46
2023/08/27 00:52:18;;;;;;;5.50;4.82;;;;;;;20.40;70.04;93408.06;509729;29;995;-46
2023/08/27 00:52:34;;;;;;;6.35;5.00;;;;;;;20.39;69.96;93412.97;510711;29;879;-45
2023/08/27 00:52:49;;;;;;;6.23;4.83;;;;;;;20.39;70.02;93412.22;511630;29;1084;-45
2023/08/27 00:53:05;;;;;;;5.93;5.28;;;;;;;20.38;69.90;93405.16;512549;28;809;-46
2023/08/27 00:53:20;;;;;;;5.57;4.93;;;;;;;20.38;69.82;93405.16;512890;28;797;-46
2023/08/27 00:53:38;;;;;;;5.97;4.65;;;;;;;20.36;69.64;93408.56;511791;28;880;-45
2023/08/27 00:53:54;;;;;;;5.13;4.63;;;;;;;20.30;69.60;93399.81;511770;28;884;-45
2023/08/27 00:54:10;;;;;;;5.00;4.53;;;;;;;20.37;69.43;93409.31;513438;28;786;-45
2023/08/27 00:54:26;;;;;;;4.93;4.43;;;;;;;20.37;69.49;93414.91;511537;29;1139;-46
2023/08/27 00:54:41;;;;;;;5.05;4.35;;;;;;;20.37;69.39;93410.03;511673;28;905;-45
2023/08/27 00:54:59;;;;;;;6.03;4.70;;;;;;;20.36;69.40;93402.97;511260;29;1693;-46
2023/08/27 00:55:15;;;;;;;6.22;5.15;;;;;;;20.37;69.48;93410.03;510889;29;1919;-45
2023/08/27 00:55:30;;;;;;;5.50;4.93;;;;;;;20.23;69.38;93391.66;511727;28;1337;-46
2023/08/27 00:55:46;;;;;;;5.30;4.77;;;;;;;20.37;69.65;93406.50;511567;28;976;-46
2023/08/27 00:56:02;;;;;;;5.90;4.70;;;;;;;20.36;69.64;93414.19;512386;28;971;-46
2023/08/27 00:56:17;;;;;;;6.25;4.50;;;;;;;20.36;69.71;93407.84;511705;29;944;-46
2023/08/27 00:56:33;;;;;;;5.22;4.43;;;;;;;20.34;69.63;93400.03;512325;28;905;-45
2023/08/27 00:56:48;;;;;;;4.95;4.45;;;;;;;20.35;69.66;93403.59;513663;28;1728;-46
2023/08/27 00:57:06;;;;;;;4.93;4.43;;;;;;;20.35;69.52;93406.38;513455;28;1199;-46
2023/08/27 00:57:21;;;;;;;5.40;4.82;;;;;;;20.35;69.42;93403.59;513546;28;1091;-45
2023/08/27 00:57:38;;;;;;;5.40;4.87;;;;;;;20.34;69.58;93400.03;513107;28;1759;-46
2023/08/27 00:57:54;;;;;;;4.82;4.32;;;;;;;20.35;69.70;93404.31;512740;28;896;-45
2023/08/27 00:58:09;;;;;;;4.37;3.97;;;;;;;20.34;69.79;93402.84;513622;28;911;-46
2023/08/27 00:58:25;;;;;;;4.60;4.20;;;;;;;20.35;69.83;93400.78;513792;28;864;-46
2023/08/27 00:58:40;;;;;;;5.00;4.50;;;;;;;20.34;69.78;93400.03;512970;28;849;-45
2023/08/27 00:58:56;;;;;;;5.20;4.50;;;;;;;20.33;69.81;93404.22;512861;28;1226;-45
2023/08/27 00:59:12;;;;;;;5.27;4.70;;;;;;;20.27;69.85;93389.13;511607;28;833;-45
2023/08/27 00:59:27;;;;;;;5.20;4.60;;;;;;;20.33;69.92;93401.41;509591;29;2660;-45
2023/08/27 00:59:43;;;;;;;5.53;4.63;;;;;;;20.32;70.01;93397.13;509602;29;865;-45
2023/08/27 00:59:58;;;;;;;5.13;4.60;;;;;;;20.29;69.85;93403.94;509637;29;1001;-45
2023/08/27 01:00:14;;;;;;;5.00;4.50;;;;;;;20.31;69.90;93400.56;509678;29;873;-47
2023/08/27 01:00:30;;;;;;;5.32;4.82;;;;;;;20.29;69.92;93395.53;507671;29;1160;-44
2023/08/27 01:00:45;;;;;;;6.03;5.43;;;;;;;20.19;70.00;93388.59;508214;29;833;-45
2023/08/27 01:01:00;;;;;;;6.60;5.30;;;;;;;20.26;69.95;93398.84;510177;29;821;-44
2023/08/27 01:01:17;;;;;;;6.30;4.80;;;;;;;20.27;69.89;93398.22;512024;28;1142;-46
2023/08/27 01:01:32;;;;;;;5.53;4.88;;;;;;;20.27;69.84;93406.63;511416;29;1720;-45
2023/08/27 01:01:48;;;;;;;5.53;4.67;;;;;;;20.27;69.80;93394.72;509610;29;1201;-46
2023/08/27 01:02:04;;;;;;;5.53;4.97;;;;;;;20.26;69.87;93396.06;509103;29;1265;-44
2023/08/27 01:02:19;;;;;;;6.45;5.32;;;;;;;20.25;69.89;93403.00;510167;29;916;-44
2023/08/27 01:02:37;;;;;;;6.63;5.00;;;;;;;20.24;69.96;93401.53;511602;29;890;-46
2023/08/27 01:02:53;;;;;;;5.75;4.80;;;;;;;20.25;69.92;93403.72;511676;29;809;-44
2023/08/27 01:03:08;;;;;;;5.68;5.07;;;;;;;20.25;69.99;93400.19;511614;29;975;-46
2023/08/27 01:03:25;;;;;;;7.10;5.37;;;;;;;20.25;69.98;93403.72;512328;28;1230;-45
2023/08/27 01:03:41;;;;;;;7.25;5.18;;;;;;;20.24;70.08;93401.53;511814;28;1351;-45
2023/08/27 01:03:56;;;;;;;5.93;4.78;;;;;;;20.23;70.19;93400.81;511850;28;882;-45
2023/08/27 01:04:11;;;;;;;5.13;4.55;;;;;;;20.24;70.12;93409.97;512697;28;1691;-45
2023/08/27 01:04:27;;;;;;;5.50;4.83;;;;;;;20.24;70.07;93401.53;513352;28;967;-45
2023/08/27 01:04:42;;;;;;;4.90;4.40;;;;;;;20.24;70.28;93401.53;512229;28;908;-45
2023/08/27 01:04:58;;;;;;;4.90;4.40;;;;;;;20.23;70.33;93394.47;513264;28;1151;-44
2023/08/27 01:05:14;;;;;;;5.72;4.90;;;;;;;20.24;70.35;93396.66;513711;28;830;-47
2023/08/27 01:05:29;;;;;;;6.00;4.87;;;;;;;20.24;70.38;93398.75;513816;28;1021;-46
2023/08/27 01:05:45;;;;;;;5.32;4.60;;;;;;;20.24;70.43;93401.53;513814;28;852;-45
2023/08/27 01:06:01;;;;;;;5.53;4.63;;;;;;;20.24;70.38;93401.53;513764;28;1019;-45
2023/08/27 01:06:16;;;;;;;5.55;4.57;;;;;;;20.24;70.39;93399.47;513779;28;1000;-45
2023/08/27 01:06:32;;;;;;;5.30;4.80;;;;;;;20.24;70.43;93401.53;513402;28;1202;-45
2023/08/27 01:06:47;;;;;;;5.85;5.32;;;;;;;20.25;70.30;93398.13;513029;28;1676;-46
2023/08/27 01:07:11;;;;;;;5.72;5.13;;;;;;;20.25;70.20;93398.13;512616;28;949;-45
2023/08/27 01:07:32;;;;;;;6.00;5.28;;;;;;;20.24;70.30;93395.94;511638;29;1212;-45
2023/08/27 01:08:12;;;;;;;5.43;4.70;;;;;;;20.23;70.35;93400.81;511588;29;1169;-44
2023/08/27 01:08:47;;;;;;;5.88;4.75;;;;;;;20.24;70.36;93402.28;511680;28;1623;-45
2023/08/27 01:09:04;;;;;;;5.40;4.90;;;;;;;20.24;70.50;93396.66;513287;28;848;-45
2023/08/27 01:09:35;;;;;;;5.78;5.18;;;;;;;20.24;70.52;93401.53;512028;28;1211;-44
2023/08/27 01:10:01;;;;;;;5.05;4.50;;;;;;;20.23;70.67;93398.00;513582;28;946;-45
2023/08/27 01:10:46;;;;;;;5.33;4.73;;;;;;;20.23;70.64;93402.88;509690;29;944;-45
2023/08/27 01:11:10;;;;;;;5.65;4.90;;;;;;;20.23;70.42;93397.28;511792;29;1195;-44
2023/08/27 01:12:02;;;;;;;5.35;4.85;;;;;;;20.23;70.13;93400.06;511465;29;1693;-45
2023/08/27 01:12:25;;;;;;;6.03;5.27;;;;;;;20.22;70.26;93401.44;513674;28;1267;-45
2023/08/27 01:13:04;;;;;;;6.07;5.18;;;;;;;20.22;70.11;93395.81;512007;29;850;-46
2023/08/27 01:13:29;;;;;;;5.25;4.75;;;;;;;20.20;70.10;93402.06;512876;28;1353;-46
2023/08/27 01:13:51;;;;;;;5.15;4.65;;;;;;;20.16;69.97;93384.25;513969;28;836;-45
2023/08/27 01:14:09;;;;;;;5.32;4.82;;;;;;;20.20;70.01;93395.69;512013;28;1606;-46
2023/08/27 01:14:27;;;;;;;5.40;4.68;;;;;;;20.20;70.03;93395.69;511193;29;1053;-46
2023/08/27 01:14:45;;;;;;;4.70;4.30;;;;;;;20.20;69.87;93398.47;514014;28;797;-45
2023/08/27 01:15:03;;;;;;;5.20;4.70;;;;;;;20.20;69.76;93404.09;513984;28;884;-46
2023/08/27 01:15:18;;;;;;;5.32;4.72;;;;;;;20.19;69.72;93399.81;514079;28;1973;-45
2023/08/27 01:15:35;;;;;;;5.10;4.60;;;;;;;20.18;69.70;93395.56;515548;28;880;-45
2023/08/27 01:16:00;;;;;;;4.90;4.47;;;;;;;20.17;69.87;93392.03;511723;28;1334;-45
2023/08/27 01:16:18;;;;;;;5.38;4.88;;;;;;;20.19;69.85;93397.00;510044;29;1180;-45
2023/08/27 01:16:35;;;;;;;5.97;5.25;;;;;;;20.17;69.87;93391.28;509931;29;939;-45
2023/08/27 01:16:50;;;;;;;6.72;5.32;;;;;;;20.16;70.01;93387.75;510027;29;1696;-46
2023/08/27 01:17:06;;;;;;;6.30;5.20;;;;;;;20.16;69.98;93395.44;511843;29;878;-45
2023/08/27 01:17:22;;;;;;;5.85;5.10;;;;;;;20.15;70.01;93393.97;512126;29;792;-44
2023/08/27 01:17:38;;;;;;;6.15;5.00;;;;;;;20.16;70.02;93389.84;510224;29;893;-44
2023/08/27 01:17:54;;;;;;;5.20;4.70;;;;;;;20.16;69.91;93392.66;510787;29;789;-46
2023/08/27 01:18:10;;;;;;;5.22;4.72;;;;;;;20.16;70.10;93395.44;509228;29;849;-45
2023/08/27 01:18:26;;;;;;;6.55;5.20;;;;;;;20.15;70.10;93391.19;508791;29;1172;-45
2023/08/27 01:18:42;;;;;;;5.90;5.20;;;;;;;20.14;70.08;93384.84;508175;29;778;-46
2023/08/27 01:18:59;;;;;;;5.55;4.60;;;;;;;20.15;70.13;93393.97;508022;29;880;-46
2023/08/27 01:19:15;;;;;;;5.50;4.70;;;;;;;20.14;70.22;93393.25;506144;29;1067;-45
2023/08/27 01:19:31;;;;;;;5.78;5.18;;;;;;;20.14;70.03;93392.53;507130;29;1076;-44
2023/08/27 01:19:48;;;;;;;5.53;4.90;;;;;;;20.14;70.02;93389.72;508086;29;825;-46
2023/08/27 01:20:05;;;;;;;5.10;4.60;;;;;;;20.13;70.03;93394.59;511057;29;857;-46
2023/08/27 01:20:22;;;;;;;6.60;4.65;;;;;;;20.10;70.07;93390.22;512748;28;1841;-46